sensor_id;sensor_type;location;lat;lon;timestamp;P1;durP1;ratioP1;P2;durP2;ratioP2
45354;SDS011;31091;48.758;9.150;2023-04-30T00:01:13;6.25;;;3.17;;
45354;SDS011;31091;48.758;9.150;2023-04-30T00:03:59;7.00;;;2.90;;
45354;SDS011;31091;48.758;9.150;2023-04-30T00:06:44;9.02;;;4.05;;
45354;SDS011;31091;48.758;9.150;2023-04-30T00:09:29;7.90;;;3.92;;
45354;SDS011;31091;48.758;9.150;2023-04-30T00:12:14;6.38;;;3.80;;
45354;SDS011;31091;48.758;9.150;2023-04-30T00:14:59;6.40;;;3.33;;
45354;SDS011;31091;48.758;9.150;2023-04-30T00:17:45;5.20;;;3.40;;
45354;SDS011;31091;48.758;9.150;2023-04-30T00:20:30;11.65;;;3.78;;
45354;SDS011;31091;48.758;9.150;2023-04-30T00:23:16;9.57;;;4.45;;
45354;SDS011;31091;48.758;9.150;2023-04-30T00:26:01;6.00;;;3.55;;
45354;SDS011;31091;48.758;9.150;2023-04-30T00:28:46;8.45;;;4.45;;
45354;SDS011;31091;48.758;9.150;2023-04-30T00:31:32;6.80;;;4.65;;
45354;SDS011;31091;48.758;9.150;2023-04-30T00:34:17;5.85;;;3.90;;
45354;SDS011;31091;48.758;9.150;2023-04-30T00:37:02;6.85;;;3.60;;
45354;SDS011;31091;48.758;9.150;2023-04-30T00:39:47;7.28;;;4.35;;
45354;SDS011;31091;48.758;9.150;2023-04-30T00:42:32;7.88;;;4.78;;
45354;SDS011;31091;48.758;9.150;2023-04-30T00:45:18;6.40;;;4.22;;
45354;SDS011;31091;48.758;9.150;2023-04-30T00:48:06;11.18;;;4.07;;
45354;SDS011;31091;48.758;9.150;2023-04-30T00:50:51;6.20;;;4.20;;
45354;SDS011;31091;48.758;9.150;2023-04-30T00:53:37;6.07;;;3.60;;
45354;SDS011;31091;48.758;9.150;2023-04-30T00:56:22;7.10;;;4.05;;
45354;SDS011;31091;48.758;9.150;2023-04-30T00:59:07;5.70;;;3.85;;
45354;SDS011;31091;48.758;9.150;2023-04-30T01:01:53;6.40;;;4.32;;
45354;SDS011;31091;48.758;9.150;2023-04-30T01:04:38;8.40;;;4.55;;
45354;SDS011;31091;48.758;9.150;2023-04-30T01:07:24;7.72;;;4.32;;
45354;SDS011;31091;48.758;9.150;2023-04-30T01:10:12;7.78;;;4.78;;
45354;SDS011;31091;48.758;9.150;2023-04-30T01:13:00;5.38;;;3.97;;
45354;SDS011;31091;48.758;9.150;2023-04-30T01:16:32;9.02;;;5.45;;
45354;SDS011;31091;48.758;9.150;2023-04-30T01:18:58;8.45;;;4.53;;
45354;SDS011;31091;48.758;9.150;2023-04-30T01:21:44;8.23;;;4.97;;
45354;SDS011;31091;48.758;9.150;2023-04-30T01:24:42;10.52;;;4.68;;
45354;SDS011;31091;48.758;9.150;2023-04-30T01:27:49;7.15;;;4.80;;
45354;SDS011;31091;48.758;9.150;2023-04-30T01:30:35;7.57;;;4.80;;
45354;SDS011;31091;48.758;9.150;2023-04-30T01:33:22;9.20;;;6.18;;
45354;SDS011;31091;48.758;9.150;2023-04-30T01:36:12;10.73;;;5.40;;
45354;SDS011;31091;48.758;9.150;2023-04-30T01:48:27;12.07;;;6.80;;
45354;SDS011;31091;48.758;9.150;2023-04-30T01:50:48;9.18;;;5.55;;
45354;SDS011;31091;48.758;9.150;2023-04-30T01:53:43;12.90;;;7.50;;
45354;SDS011;31091;48.758;9.150;2023-04-30T01:56:30;7.97;;;4.82;;
45354;SDS011;31091;48.758;9.150;2023-04-30T01:59:16;9.68;;;6.22;;
45354;SDS011;31091;48.758;9.150;2023-04-30T02:02:02;10.25;;;5.53;;
45354;SDS011;31091;48.758;9.150;2023-04-30T02:04:47;12.80;;;6.30;;
45354;SDS011;31091;48.758;9.150;2023-04-30T02:07:37;9.27;;;5.70;;
45354;SDS011;31091;48.758;9.150;2023-04-30T02:10:23;9.90;;;6.03;;
45354;SDS011;31091;48.758;9.150;2023-04-30T02:13:09;9.88;;;5.78;;
45354;SDS011;31091;48.758;9.150;2023-04-30T02:15:54;10.77;;;6.18;;
45354;SDS011;31091;48.758;9.150;2023-04-30T02:18:40;10.02;;;6.18;;
45354;SDS011;31091;48.758;9.150;2023-04-30T02:21:25;11.05;;;6.82;;
45354;SDS011;31091;48.758;9.150;2023-04-30T02:24:11;8.70;;;5.10;;
45354;SDS011;31091;48.758;9.150;2023-04-30T02:26:56;8.25;;;4.72;;
45354;SDS011;31091;48.758;9.150;2023-04-30T02:29:41;9.13;;;5.97;;
45354;SDS011;31091;48.758;9.150;2023-04-30T02:32:26;10.77;;;6.63;;
45354;SDS011;31091;48.758;9.150;2023-04-30T02:35:12;10.98;;;7.05;;
45354;SDS011;31091;48.758;9.150;2023-04-30T02:37:57;9.85;;;6.35;;
45354;SDS011;31091;48.758;9.150;2023-04-30T02:40:42;13.98;;;7.18;;
45354;SDS011;31091;48.758;9.150;2023-04-30T02:43:27;16.20;;;7.32;;
45354;SDS011;31091;48.758;9.150;2023-04-30T02:46:12;11.10;;;7.68;;
45354;SDS011;31091;48.758;9.150;2023-04-30T02:48:58;11.20;;;7.63;;
45354;SDS011;31091;48.758;9.150;2023-04-30T02:51:43;9.27;;;6.32;;
45354;SDS011;31091;48.758;9.150;2023-04-30T02:54:28;12.02;;;8.38;;
45354;SDS011;31091;48.758;9.150;2023-04-30T02:57:13;11.63;;;7.63;;
45354;SDS011;31091;48.758;9.150;2023-04-30T02:59:59;11.98;;;6.95;;
45354;SDS011;31091;48.758;9.150;2023-04-30T03:02:44;10.18;;;6.88;;
45354;SDS011;31091;48.758;9.150;2023-04-30T03:05:29;11.32;;;7.75;;
45354;SDS011;31091;48.758;9.150;2023-04-30T03:08:15;12.30;;;7.65;;
45354;SDS011;31091;48.758;9.150;2023-04-30T03:11:00;12.00;;;7.32;;
45354;SDS011;31091;48.758;9.150;2023-04-30T03:13:46;9.43;;;6.70;;
45354;SDS011;31091;48.758;9.150;2023-04-30T03:16:33;9.77;;;6.40;;
45354;SDS011;31091;48.758;9.150;2023-04-30T03:19:19;14.13;;;8.00;;
45354;SDS011;31091;48.758;9.150;2023-04-30T03:22:09;12.25;;;7.88;;
45354;SDS011;31091;48.758;9.150;2023-04-30T03:24:54;9.45;;;6.70;;
45354;SDS011;31091;48.758;9.150;2023-04-30T03:27:39;13.65;;;7.90;;
45354;SDS011;31091;48.758;9.150;2023-04-30T03:30:25;10.10;;;6.15;;
45354;SDS011;31091;48.758;9.150;2023-04-30T03:33:10;11.23;;;6.57;;
45354;SDS011;31091;48.758;9.150;2023-04-30T03:35:55;12.05;;;6.72;;
45354;SDS011;31091;48.758;9.150;2023-04-30T03:38:41;10.90;;;6.85;;
45354;SDS011;31091;48.758;9.150;2023-04-30T03:41:26;10.50;;;6.32;;
45354;SDS011;31091;48.758;9.150;2023-04-30T03:44:12;10.18;;;6.47;;
45354;SDS011;31091;48.758;9.150;2023-04-30T03:46:59;7.75;;;5.45;;
45354;SDS011;31091;48.758;9.150;2023-04-30T03:49:44;9.52;;;6.18;;
45354;SDS011;31091;48.758;9.150;2023-04-30T03:52:30;9.43;;;5.97;;
45354;SDS011;31091;48.758;9.150;2023-04-30T03:55:15;15.55;;;6.78;;
45354;SDS011;31091;48.758;9.150;2023-04-30T03:58:01;13.35;;;6.97;;
45354;SDS011;31091;48.758;9.150;2023-04-30T04:00:46;8.63;;;5.57;;
45354;SDS011;31091;48.758;9.150;2023-04-30T04:03:33;8.80;;;5.70;;
45354;SDS011;31091;48.758;9.150;2023-04-30T04:06:18;11.45;;;6.03;;
45354;SDS011;31091;48.758;9.150;2023-04-30T04:09:03;10.05;;;6.75;;
45354;SDS011;31091;48.758;9.150;2023-04-30T04:11:49;10.45;;;6.05;;
45354;SDS011;31091;48.758;9.150;2023-04-30T04:14:34;9.07;;;5.10;;
45354;SDS011;31091;48.758;9.150;2023-04-30T04:17:19;9.55;;;6.15;;
45354;SDS011;31091;48.758;9.150;2023-04-30T04:20:05;11.00;;;5.97;;
45354;SDS011;31091;48.758;9.150;2023-04-30T04:22:50;10.60;;;5.97;;
45354;SDS011;31091;48.758;9.150;2023-04-30T04:25:35;10.13;;;6.13;;
45354;SDS011;31091;48.758;9.150;2023-04-30T04:28:20;11.85;;;6.28;;
45354;SDS011;31091;48.758;9.150;2023-04-30T04:31:06;10.57;;;7.63;;
45354;SDS011;31091;48.758;9.150;2023-04-30T04:33:52;9.95;;;5.63;;
45354;SDS011;31091;48.758;9.150;2023-04-30T04:36:42;10.48;;;6.25;;
45354;SDS011;31091;48.758;9.150;2023-04-30T04:39:27;8.63;;;5.38;;
45354;SDS011;31091;48.758;9.150;2023-04-30T04:42:13;8.82;;;5.25;;
45354;SDS011;31091;48.758;9.150;2023-04-30T04:44:58;9.98;;;6.28;;
45354;SDS011;31091;48.758;9.150;2023-04-30T04:47:44;8.02;;;5.10;;
45354;SDS011;31091;48.758;9.150;2023-04-30T04:50:29;9.88;;;5.85;;
45354;SDS011;31091;48.758;9.150;2023-04-30T04:53:14;9.85;;;5.57;;
45354;SDS011;31091;48.758;9.150;2023-04-30T04:55:59;8.07;;;5.85;;
45354;SDS011;31091;48.758;9.150;2023-04-30T04:58:45;10.23;;;6.00;;
45354;SDS011;31091;48.758;9.150;2023-04-30T05:01:30;8.65;;;5.03;;
45354;SDS011;31091;48.758;9.150;2023-04-30T05:04:15;10.93;;;5.55;;
45354;SDS011;31091;48.758;9.150;2023-04-30T05:07:00;12.95;;;6.72;;
45354;SDS011;31091;48.758;9.150;2023-04-30T05:09:46;9.73;;;5.55;;
45354;SDS011;31091;48.758;9.150;2023-04-30T05:12:31;8.80;;;5.88;;
45354;SDS011;31091;48.758;9.150;2023-04-30T05:15:16;10.77;;;6.90;;
45354;SDS011;31091;48.758;9.150;2023-04-30T05:18:02;11.95;;;5.32;;
45354;SDS011;31091;48.758;9.150;2023-04-30T05:20:47;8.75;;;5.57;;
45354;SDS011;31091;48.758;9.150;2023-04-30T05:23:33;9.90;;;5.80;;
45354;SDS011;31091;48.758;9.150;2023-04-30T05:26:18;7.78;;;5.22;;
45354;SDS011;31091;48.758;9.150;2023-04-30T05:29:03;7.78;;;5.50;;
45354;SDS011;31091;48.758;9.150;2023-04-30T05:31:48;12.98;;;5.97;;
45354;SDS011;31091;48.758;9.150;2023-04-30T05:34:33;10.98;;;5.70;;
45354;SDS011;31091;48.758;9.150;2023-04-30T05:37:19;10.90;;;7.05;;
45354;SDS011;31091;48.758;9.150;2023-04-30T05:40:06;9.77;;;5.97;;
45354;SDS011;31091;48.758;9.150;2023-04-30T05:42:52;8.90;;;6.20;;
45354;SDS011;31091;48.758;9.150;2023-04-30T05:45:37;13.27;;;7.60;;
45354;SDS011;31091;48.758;9.150;2023-04-30T05:48:22;11.88;;;7.40;;
45354;SDS011;31091;48.758;9.150;2023-04-30T05:51:07;13.55;;;7.75;;
45354;SDS011;31091;48.758;9.150;2023-04-30T05:53:54;12.05;;;8.85;;
45354;SDS011;31091;48.758;9.150;2023-04-30T05:56:41;11.88;;;8.43;;
45354;SDS011;31091;48.758;9.150;2023-04-30T05:59:27;11.40;;;7.68;;
45354;SDS011;31091;48.758;9.150;2023-04-30T06:02:12;11.30;;;7.32;;
45354;SDS011;31091;48.758;9.150;2023-04-30T06:04:57;9.98;;;7.13;;
45354;SDS011;31091;48.758;9.150;2023-04-30T06:07:42;12.07;;;7.32;;
45354;SDS011;31091;48.758;9.150;2023-04-30T06:10:27;13.15;;;7.68;;
45354;SDS011;31091;48.758;9.150;2023-04-30T06:13:13;11.43;;;7.35;;
45354;SDS011;31091;48.758;9.150;2023-04-30T06:15:58;12.00;;;7.10;;
45354;SDS011;31091;48.758;9.150;2023-04-30T06:18:44;11.93;;;8.10;;
45354;SDS011;31091;48.758;9.150;2023-04-30T06:21:29;10.07;;;7.43;;
45354;SDS011;31091;48.758;9.150;2023-04-30T06:24:14;10.75;;;7.80;;
45354;SDS011;31091;48.758;9.150;2023-04-30T06:27:00;12.05;;;7.38;;
45354;SDS011;31091;48.758;9.150;2023-04-30T06:29:45;9.75;;;7.15;;
45354;SDS011;31091;48.758;9.150;2023-04-30T06:32:30;11.82;;;7.82;;
45354;SDS011;31091;48.758;9.150;2023-04-30T06:35:15;10.32;;;6.82;;
45354;SDS011;31091;48.758;9.150;2023-04-30T06:38:01;11.73;;;7.32;;
45354;SDS011;31091;48.758;9.150;2023-04-30T06:40:46;13.10;;;7.70;;
45354;SDS011;31091;48.758;9.150;2023-04-30T06:43:31;10.98;;;7.05;;
45354;SDS011;31091;48.758;9.150;2023-04-30T06:46:16;11.73;;;7.28;;
45354;SDS011;31091;48.758;9.150;2023-04-30T06:49:02;10.38;;;7.07;;
45354;SDS011;31091;48.758;9.150;2023-04-30T06:51:47;9.85;;;6.65;;
45354;SDS011;31091;48.758;9.150;2023-04-30T06:54:33;9.40;;;6.72;;
45354;SDS011;31091;48.758;9.150;2023-04-30T06:57:18;19.55;;;6.85;;
45354;SDS011;31091;48.758;9.150;2023-04-30T07:00:04;8.45;;;6.10;;
45354;SDS011;31091;48.758;9.150;2023-04-30T07:02:49;9.18;;;5.82;;
45354;SDS011;31091;48.758;9.150;2023-04-30T07:05:35;8.63;;;6.38;;
45354;SDS011;31091;48.758;9.150;2023-04-30T07:08:21;8.85;;;6.05;;
45354;SDS011;31091;48.758;9.150;2023-04-30T07:11:06;8.60;;;6.30;;
45354;SDS011;31091;48.758;9.150;2023-04-30T07:13:51;10.43;;;6.13;;
45354;SDS011;31091;48.758;9.150;2023-04-30T07:16:37;9.25;;;6.15;;
45354;SDS011;31091;48.758;9.150;2023-04-30T07:19:22;11.02;;;6.20;;
45354;SDS011;31091;48.758;9.150;2023-04-30T07:22:10;7.40;;;5.32;;
45354;SDS011;31091;48.758;9.150;2023-04-30T07:24:56;8.73;;;5.88;;
45354;SDS011;31091;48.758;9.150;2023-04-30T07:27:41;13.98;;;7.22;;
45354;SDS011;31091;48.758;9.150;2023-04-30T07:30:27;11.23;;;6.38;;
45354;SDS011;31091;48.758;9.150;2023-04-30T07:33:12;8.05;;;5.70;;
45354;SDS011;31091;48.758;9.150;2023-04-30T07:35:57;9.20;;;5.50;;
45354;SDS011;31091;48.758;9.150;2023-04-30T07:38:43;7.97;;;5.95;;
45354;SDS011;31091;48.758;9.150;2023-04-30T07:41:28;9.35;;;5.95;;
45354;SDS011;31091;48.758;9.150;2023-04-30T07:44:13;10.30;;;6.32;;
45354;SDS011;31091;48.758;9.150;2023-04-30T07:46:59;9.63;;;6.25;;
45354;SDS011;31091;48.758;9.150;2023-04-30T07:49:45;9.15;;;5.78;;
45354;SDS011;31091;48.758;9.150;2023-04-30T07:52:30;7.80;;;5.88;;
45354;SDS011;31091;48.758;9.150;2023-04-30T07:55:15;9.63;;;5.95;;
45354;SDS011;31091;48.758;9.150;2023-04-30T07:58:01;7.15;;;5.03;;
45354;SDS011;31091;48.758;9.150;2023-04-30T08:00:47;9.23;;;6.25;;
45354;SDS011;31091;48.758;9.150;2023-04-30T08:03:32;8.18;;;5.35;;
45354;SDS011;31091;48.758;9.150;2023-04-30T08:06:18;11.18;;;5.57;;
45354;SDS011;31091;48.758;9.150;2023-04-30T08:09:03;6.43;;;4.88;;
45354;SDS011;31091;48.758;9.150;2023-04-30T08:11:48;7.20;;;4.90;;
45354;SDS011;31091;48.758;9.150;2023-04-30T08:14:34;6.88;;;5.22;;
45354;SDS011;31091;48.758;9.150;2023-04-30T08:17:19;8.18;;;5.75;;
45354;SDS011;31091;48.758;9.150;2023-04-30T08:20:04;6.68;;;4.97;;
45354;SDS011;31091;48.758;9.150;2023-04-30T08:22:50;7.30;;;4.57;;
45354;SDS011;31091;48.758;9.150;2023-04-30T08:25:36;6.95;;;4.60;;
45354;SDS011;31091;48.758;9.150;2023-04-30T08:28:21;6.38;;;4.60;;
45354;SDS011;31091;48.758;9.150;2023-04-30T08:31:06;6.38;;;4.63;;
45354;SDS011;31091;48.758;9.150;2023-04-30T08:33:52;6.35;;;4.15;;
45354;SDS011;31091;48.758;9.150;2023-04-30T08:36:37;6.97;;;4.13;;
45354;SDS011;31091;48.758;9.150;2023-04-30T08:39:23;6.68;;;4.13;;
45354;SDS011;31091;48.758;9.150;2023-04-30T08:42:08;7.55;;;4.15;;
45354;SDS011;31091;48.758;9.150;2023-04-30T08:44:58;6.47;;;4.40;;
45354;SDS011;31091;48.758;9.150;2023-04-30T08:47:44;6.00;;;3.50;;
45354;SDS011;31091;48.758;9.150;2023-04-30T08:50:30;6.78;;;4.20;;
45354;SDS011;31091;48.758;9.150;2023-04-30T08:53:15;5.97;;;3.55;;
45354;SDS011;31091;48.758;9.150;2023-04-30T08:56:02;4.18;;;2.72;;
45354;SDS011;31091;48.758;9.150;2023-04-30T08:58:47;4.05;;;2.85;;
45354;SDS011;31091;48.758;9.150;2023-04-30T09:01:33;6.20;;;3.47;;
45354;SDS011;31091;48.758;9.150;2023-04-30T09:04:18;5.25;;;3.08;;
45354;SDS011;31091;48.758;9.150;2023-04-30T09:07:04;5.15;;;3.45;;
45354;SDS011;31091;48.758;9.150;2023-04-30T09:09:53;6.78;;;3.30;;
45354;SDS011;31091;48.758;9.150;2023-04-30T09:12:38;4.70;;;3.00;;
45354;SDS011;31091;48.758;9.150;2023-04-30T09:15:25;4.20;;;3.20;;
45354;SDS011;31091;48.758;9.150;2023-04-30T09:18:12;5.20;;;2.95;;
45354;SDS011;31091;48.758;9.150;2023-04-30T09:20:59;3.80;;;3.05;;
45354;SDS011;31091;48.758;9.150;2023-04-30T09:24:00;4.70;;;3.40;;
45354;SDS011;31091;48.758;9.150;2023-04-30T09:26:46;6.38;;;4.07;;
45354;SDS011;31091;48.758;9.150;2023-04-30T09:29:35;3.90;;;3.30;;
45354;SDS011;31091;48.758;9.150;2023-04-30T09:32:20;5.15;;;3.10;;
45354;SDS011;31091;48.758;9.150;2023-04-30T09:35:06;5.55;;;3.33;;
45354;SDS011;31091;48.758;9.150;2023-04-30T09:37:51;6.82;;;3.90;;
45354;SDS011;31091;48.758;9.150;2023-04-30T09:40:37;5.93;;;3.40;;
45354;SDS011;31091;48.758;9.150;2023-04-30T09:43:24;5.15;;;3.35;;
45354;SDS011;31091;48.758;9.150;2023-04-30T09:46:09;4.47;;;3.10;;
45354;SDS011;31091;48.758;9.150;2023-04-30T09:48:58;4.18;;;2.95;;
45354;SDS011;31091;48.758;9.150;2023-04-30T09:51:56;3.58;;;2.78;;
45354;SDS011;31091;48.758;9.150;2023-04-30T09:54:43;3.53;;;2.88;;
45354;SDS011;31091;48.758;9.150;2023-04-30T09:57:28;5.10;;;2.83;;
45354;SDS011;31091;48.758;9.150;2023-04-30T10:00:14;4.57;;;3.20;;
45354;SDS011;31091;48.758;9.150;2023-04-30T10:03:07;4.82;;;2.72;;
45354;SDS011;31091;48.758;9.150;2023-04-30T10:05:52;5.70;;;2.83;;
45354;SDS011;31091;48.758;9.150;2023-04-30T10:08:39;4.57;;;2.80;;
45354;SDS011;31091;48.758;9.150;2023-04-30T10:11:26;5.82;;;3.10;;
45354;SDS011;31091;48.758;9.150;2023-04-30T10:14:12;4.60;;;3.05;;
45354;SDS011;31091;48.758;9.150;2023-04-30T10:17:05;4.18;;;2.65;;
45354;SDS011;31091;48.758;9.150;2023-04-30T10:19:51;3.20;;;2.20;;
45354;SDS011;31091;48.758;9.150;2023-04-30T10:22:38;6.07;;;2.30;;
45354;SDS011;31091;48.758;9.150;2023-04-30T10:25:26;4.40;;;2.53;;
45354;SDS011;31091;48.758;9.150;2023-04-30T10:28:12;5.85;;;2.53;;
45354;SDS011;31091;48.758;9.150;2023-04-30T10:30:57;4.03;;;2.47;;
45354;SDS011;31091;48.758;9.150;2023-04-30T10:33:45;4.90;;;3.35;;
45354;SDS011;31091;48.758;9.150;2023-04-30T10:36:47;4.90;;;2.63;;
45354;SDS011;31091;48.758;9.150;2023-04-30T10:39:32;4.10;;;2.67;;
45354;SDS011;31091;48.758;9.150;2023-04-30T10:42:19;3.38;;;2.78;;
45354;SDS011;31091;48.758;9.150;2023-04-30T10:45:04;5.40;;;3.05;;
45354;SDS011;31091;48.758;9.150;2023-04-30T10:47:54;4.28;;;2.58;;
45354;SDS011;31091;48.758;9.150;2023-04-30T10:50:40;4.38;;;2.90;;
45354;SDS011;31091;48.758;9.150;2023-04-30T10:53:28;4.22;;;2.78;;
45354;SDS011;31091;48.758;9.150;2023-04-30T10:56:14;6.95;;;3.53;;
45354;SDS011;31091;48.758;9.150;2023-04-30T10:59:13;5.40;;;3.10;;
45354;SDS011;31091;48.758;9.150;2023-04-30T11:01:59;5.85;;;3.08;;
45354;SDS011;31091;48.758;9.150;2023-04-30T11:07:51;4.70;;;3.13;;
45354;SDS011;31091;48.758;9.150;2023-04-30T11:10:40;4.40;;;3.05;;
45354;SDS011;31091;48.758;9.150;2023-04-30T11:13:42;5.10;;;3.28;;
45354;SDS011;31091;48.758;9.150;2023-04-30T11:16:28;4.20;;;3.38;;
45354;SDS011;31091;48.758;9.150;2023-04-30T11:19:14;4.70;;;2.97;;
45354;SDS011;31091;48.758;9.150;2023-04-30T11:24:48;5.30;;;3.50;;
45354;SDS011;31091;48.758;9.150;2023-04-30T11:27:34;4.90;;;2.80;;
45354;SDS011;31091;48.758;9.150;2023-04-30T11:30:20;4.68;;;2.80;;
45354;SDS011;31091;48.758;9.150;2023-04-30T11:33:06;5.95;;;3.13;;
45354;SDS011;31091;48.758;9.150;2023-04-30T11:35:52;5.07;;;2.83;;
45354;SDS011;31091;48.758;9.150;2023-04-30T11:38:37;4.80;;;3.10;;
45354;SDS011;31091;48.758;9.150;2023-04-30T11:41:23;9.63;;;3.15;;
45354;SDS011;31091;48.758;9.150;2023-04-30T11:44:21;4.72;;;3.53;;
45354;SDS011;31091;48.758;9.150;2023-04-30T11:47:07;5.53;;;3.42;;
45354;SDS011;31091;48.758;9.150;2023-04-30T11:49:52;6.07;;;3.60;;
45354;SDS011;31091;48.758;9.150;2023-04-30T11:52:41;5.72;;;3.00;;
45354;SDS011;31091;48.758;9.150;2023-04-30T11:55:27;4.47;;;3.25;;
45354;SDS011;31091;48.758;9.150;2023-04-30T11:58:12;4.40;;;2.83;;
45354;SDS011;31091;48.758;9.150;2023-04-30T12:00:58;4.70;;;3.28;;
45354;SDS011;31091;48.758;9.150;2023-04-30T12:03:44;6.07;;;3.10;;
45354;SDS011;31091;48.758;9.150;2023-04-30T12:06:29;6.95;;;3.08;;
45354;SDS011;31091;48.758;9.150;2023-04-30T12:09:15;4.47;;;2.75;;
45354;SDS011;31091;48.758;9.150;2023-04-30T12:12:00;5.15;;;2.90;;
45354;SDS011;31091;48.758;9.150;2023-04-30T12:14:46;3.20;;;2.33;;
45354;SDS011;31091;48.758;9.150;2023-04-30T12:17:33;4.35;;;2.65;;
45354;SDS011;31091;48.758;9.150;2023-04-30T12:20:19;4.93;;;2.95;;
45354;SDS011;31091;48.758;9.150;2023-04-30T12:23:06;3.35;;;2.70;;
45354;SDS011;31091;48.758;9.150;2023-04-30T12:25:58;3.70;;;2.70;;
45354;SDS011;31091;48.758;9.150;2023-04-30T12:28:51;3.35;;;2.35;;
45354;SDS011;31091;48.758;9.150;2023-04-30T12:31:36;2.40;;;2.20;;
45354;SDS011;31091;48.758;9.150;2023-04-30T12:34:25;2.65;;;2.10;;
45354;SDS011;31091;48.758;9.150;2023-04-30T12:37:13;5.30;;;2.67;;
45354;SDS011;31091;48.758;9.150;2023-04-30T12:39:59;4.90;;;2.60;;
45354;SDS011;31091;48.758;9.150;2023-04-30T12:42:44;3.65;;;2.55;;
45354;SDS011;31091;48.758;9.150;2023-04-30T12:45:53;5.38;;;3.17;;
45354;SDS011;31091;48.758;9.150;2023-04-30T12:48:42;4.22;;;2.75;;
45354;SDS011;31091;48.758;9.150;2023-04-30T12:54:37;6.57;;;2.70;;
45354;SDS011;31091;48.758;9.150;2023-04-30T13:01:00;5.68;;;2.95;;
45354;SDS011;31091;48.758;9.150;2023-04-30T13:03:46;5.65;;;3.05;;
45354;SDS011;31091;48.758;9.150;2023-04-30T13:06:32;3.80;;;2.97;;
45354;SDS011;31091;48.758;9.150;2023-04-30T13:09:17;4.65;;;2.53;;
45354;SDS011;31091;48.758;9.150;2023-04-30T13:12:02;6.80;;;3.22;;
45354;SDS011;31091;48.758;9.150;2023-04-30T13:14:48;5.38;;;3.20;;
45354;SDS011;31091;48.758;9.150;2023-04-30T13:17:33;6.10;;;3.53;;
45354;SDS011;31091;48.758;9.150;2023-04-30T13:20:18;4.90;;;3.10;;
45354;SDS011;31091;48.758;9.150;2023-04-30T13:23:04;5.68;;;3.25;;
45354;SDS011;31091;48.758;9.150;2023-04-30T13:25:50;4.20;;;2.92;;
45354;SDS011;31091;48.758;9.150;2023-04-30T13:28:35;4.82;;;2.50;;
45354;SDS011;31091;48.758;9.150;2023-04-30T13:31:21;5.00;;;2.85;;
45354;SDS011;31091;48.758;9.150;2023-04-30T13:34:07;6.75;;;3.33;;
45354;SDS011;31091;48.758;9.150;2023-04-30T13:36:52;3.75;;;2.90;;
45354;SDS011;31091;48.758;9.150;2023-04-30T13:39:38;6.85;;;3.30;;
45354;SDS011;31091;48.758;9.150;2023-04-30T13:42:24;6.60;;;2.78;;
45354;SDS011;31091;48.758;9.150;2023-04-30T13:45:10;4.35;;;2.90;;
45354;SDS011;31091;48.758;9.150;2023-04-30T13:47:56;3.78;;;2.60;;
45354;SDS011;31091;48.758;9.150;2023-04-30T13:50:41;4.40;;;2.90;;
45354;SDS011;31091;48.758;9.150;2023-04-30T13:53:26;5.15;;;2.67;;
45354;SDS011;31091;48.758;9.150;2023-04-30T13:56:11;3.35;;;2.72;;
45354;SDS011;31091;48.758;9.150;2023-04-30T13:58:59;9.25;;;2.58;;
45354;SDS011;31091;48.758;9.150;2023-04-30T14:01:44;3.22;;;2.42;;
45354;SDS011;31091;48.758;9.150;2023-04-30T14:04:29;5.57;;;2.90;;
45354;SDS011;31091;48.758;9.150;2023-04-30T14:07:15;5.28;;;2.85;;
45354;SDS011;31091;48.758;9.150;2023-04-30T14:10:00;3.10;;;2.50;;
45354;SDS011;31091;48.758;9.150;2023-04-30T14:12:45;4.72;;;3.00;;
45354;SDS011;31091;48.758;9.150;2023-04-30T14:15:32;4.47;;;2.65;;
45354;SDS011;31091;48.758;9.150;2023-04-30T14:18:18;5.20;;;2.70;;
45354;SDS011;31091;48.758;9.150;2023-04-30T14:21:06;5.30;;;2.80;;
45354;SDS011;31091;48.758;9.150;2023-04-30T14:23:51;5.38;;;2.85;;
45354;SDS011;31091;48.758;9.150;2023-04-30T14:26:37;5.15;;;3.28;;
45354;SDS011;31091;48.758;9.150;2023-04-30T14:29:23;4.38;;;3.05;;
45354;SDS011;31091;48.758;9.150;2023-04-30T14:32:08;5.40;;;2.70;;
45354;SDS011;31091;48.758;9.150;2023-04-30T14:34:53;4.00;;;2.83;;
45354;SDS011;31091;48.758;9.150;2023-04-30T14:37:38;4.00;;;2.28;;
45354;SDS011;31091;48.758;9.150;2023-04-30T14:40:24;5.50;;;2.90;;
45354;SDS011;31091;48.758;9.150;2023-04-30T14:43:09;4.65;;;2.75;;
45354;SDS011;31091;48.758;9.150;2023-04-30T14:45:55;5.70;;;2.97;;
45354;SDS011;31091;48.758;9.150;2023-04-30T14:48:40;5.90;;;2.67;;
45354;SDS011;31091;48.758;9.150;2023-04-30T14:51:25;5.88;;;3.58;;
45354;SDS011;31091;48.758;9.150;2023-04-30T14:54:12;5.57;;;3.00;;
45354;SDS011;31091;48.758;9.150;2023-04-30T14:56:57;8.52;;;3.28;;
45354;SDS011;31091;48.758;9.150;2023-04-30T14:59:44;3.22;;;2.75;;
45354;SDS011;31091;48.758;9.150;2023-04-30T15:02:29;4.28;;;2.75;;
45354;SDS011;31091;48.758;9.150;2023-04-30T15:05:14;4.88;;;2.85;;
45354;SDS011;31091;48.758;9.150;2023-04-30T15:08:00;4.93;;;2.97;;
45354;SDS011;31091;48.758;9.150;2023-04-30T15:10:45;3.58;;;2.83;;
45354;SDS011;31091;48.758;9.150;2023-04-30T15:13:30;3.60;;;2.75;;
45354;SDS011;31091;48.758;9.150;2023-04-30T15:16:16;4.22;;;2.47;;
45354;SDS011;31091;48.758;9.150;2023-04-30T15:19:02;4.93;;;2.67;;
45354;SDS011;31091;48.758;9.150;2023-04-30T15:21:47;6.38;;;2.72;;
45354;SDS011;31091;48.758;9.150;2023-04-30T15:24:33;3.45;;;2.42;;
45354;SDS011;31091;48.758;9.150;2023-04-30T15:27:18;2.83;;;2.20;;
45354;SDS011;31091;48.758;9.150;2023-04-30T15:30:04;5.22;;;2.88;;
45354;SDS011;31091;48.758;9.150;2023-04-30T15:32:49;5.70;;;3.00;;
45354;SDS011;31091;48.758;9.150;2023-04-30T15:35:34;3.47;;;2.83;;
45354;SDS011;31091;48.758;9.150;2023-04-30T15:38:20;4.43;;;3.03;;
45354;SDS011;31091;48.758;9.150;2023-04-30T15:41:05;4.30;;;3.03;;
45354;SDS011;31091;48.758;9.150;2023-04-30T15:43:50;4.32;;;2.88;;
45354;SDS011;31091;48.758;9.150;2023-04-30T15:46:36;4.57;;;2.65;;
45354;SDS011;31091;48.758;9.150;2023-04-30T15:49:21;6.05;;;3.20;;
45354;SDS011;31091;48.758;9.150;2023-04-30T15:52:07;5.13;;;3.10;;
45354;SDS011;31091;48.758;9.150;2023-04-30T15:54:52;4.30;;;3.05;;
45354;SDS011;31091;48.758;9.150;2023-04-30T15:57:37;4.68;;;2.80;;
45354;SDS011;31091;48.758;9.150;2023-04-30T16:00:23;5.38;;;3.10;;
45354;SDS011;31091;48.758;9.150;2023-04-30T16:03:08;3.65;;;2.70;;
45354;SDS011;31091;48.758;9.150;2023-04-30T16:05:54;4.10;;;2.97;;
45354;SDS011;31091;48.758;9.150;2023-04-30T16:08:39;6.35;;;3.28;;
45354;SDS011;31091;48.758;9.150;2023-04-30T16:11:25;3.78;;;2.47;;
45354;SDS011;31091;48.758;9.150;2023-04-30T16:14:10;3.15;;;2.50;;
45354;SDS011;31091;48.758;9.150;2023-04-30T16:16:56;5.70;;;2.90;;
45354;SDS011;31091;48.758;9.150;2023-04-30T16:19:41;3.33;;;2.65;;
45354;SDS011;31091;48.758;9.150;2023-04-30T16:22:27;3.78;;;2.60;;
45354;SDS011;31091;48.758;9.150;2023-04-30T16:25:12;4.38;;;2.80;;
45354;SDS011;31091;48.758;9.150;2023-04-30T16:27:57;5.38;;;2.92;;
45354;SDS011;31091;48.758;9.150;2023-04-30T16:30:42;4.60;;;2.85;;
45354;SDS011;31091;48.758;9.150;2023-04-30T16:33:28;5.68;;;3.00;;
45354;SDS011;31091;48.758;9.150;2023-04-30T16:36:13;4.45;;;2.80;;
45354;SDS011;31091;48.758;9.150;2023-04-30T16:38:58;4.18;;;2.75;;
45354;SDS011;31091;48.758;9.150;2023-04-30T16:41:43;6.55;;;3.20;;
45354;SDS011;31091;48.758;9.150;2023-04-30T16:44:29;5.10;;;2.95;;
45354;SDS011;31091;48.758;9.150;2023-04-30T16:47:14;6.93;;;2.95;;
45354;SDS011;31091;48.758;9.150;2023-04-30T16:50:02;3.92;;;2.72;;
45354;SDS011;31091;48.758;9.150;2023-04-30T16:52:49;15.65;;;3.38;;
45354;SDS011;31091;48.758;9.150;2023-04-30T16:55:34;4.05;;;2.65;;
45354;SDS011;31091;48.758;9.150;2023-04-30T16:58:19;9.65;;;3.40;;
45354;SDS011;31091;48.758;9.150;2023-04-30T17:01:05;3.83;;;2.80;;